sensor_id;sensor_type;location;lat;lon;timestamp;P1;durP1;ratioP1;P2;durP2;ratioP2
9689;SDS011;4884;42.614;23.340;2023-05-10T00:02:23;8.93;;;8.00;;
9689;SDS011;4884;42.614;23.340;2023-05-10T00:04:49;9.03;;;8.13;;
9689;SDS011;4884;42.614;23.340;2023-05-10T00:07:14;9.00;;;8.10;;
9689;SDS011;4884;42.614;23.340;2023-05-10T00:09:42;8.57;;;7.73;;
9689;SDS011;4884;42.614;23.340;2023-05-10T00:12:07;10.27;;;9.00;;
9689;SDS011;4884;42.614;23.340;2023-05-10T00:14:33;10.37;;;8.33;;
9689;SDS011;4884;42.614;23.340;2023-05-10T00:16:58;10.53;;;9.23;;
9689;SDS011;4884;42.614;23.340;2023-05-10T00:19:23;9.63;;;8.63;;
9689;SDS011;4884;42.614;23.340;2023-05-10T00:21:49;9.77;;;8.77;;
9689;SDS011;4884;42.614;23.340;2023-05-10T00:24:14;11.60;;;9.33;;
9689;SDS011;4884;42.614;23.340;2023-05-10T00:26:40;10.20;;;9.20;;
9689;SDS011;4884;42.614;23.340;2023-05-10T00:29:07;10.37;;;9.37;;
9689;SDS011;4884;42.614;23.340;2023-05-10T00:31:32;9.97;;;8.80;;
9689;SDS011;4884;42.614;23.340;2023-05-10T00:33:58;10.17;;;8.93;;
9689;SDS011;4884;42.614;23.340;2023-05-10T00:36:23;9.37;;;8.17;;
9689;SDS011;4884;42.614;23.340;2023-05-10T00:38:48;9.87;;;8.80;;
9689;SDS011;4884;42.614;23.340;2023-05-10T00:41:14;9.50;;;8.03;;
9689;SDS011;4884;42.614;23.340;2023-05-10T00:43:40;8.83;;;7.87;;
9689;SDS011;4884;42.614;23.340;2023-05-10T00:46:06;11.13;;;9.13;;
9689;SDS011;4884;42.614;23.340;2023-05-10T00:48:31;9.20;;;8.30;;
9689;SDS011;4884;42.614;23.340;2023-05-10T00:50:56;14.33;;;9.27;;
9689;SDS011;4884;42.614;23.340;2023-05-10T00:53:22;10.03;;;9.07;;
9689;SDS011;4884;42.614;23.340;2023-05-10T00:55:47;11.33;;;10.23;;
9689;SDS011;4884;42.614;23.340;2023-05-10T00:58:13;8.97;;;7.93;;
9689;SDS011;4884;42.614;23.340;2023-05-10T01:00:38;9.70;;;8.33;;
9689;SDS011;4884;42.614;23.340;2023-05-10T01:03:06;9.50;;;8.10;;
9689;SDS011;4884;42.614;23.340;2023-05-10T01:05:32;9.43;;;8.43;;
9689;SDS011;4884;42.614;23.340;2023-05-10T01:07:57;9.63;;;8.53;;
9689;SDS011;4884;42.614;23.340;2023-05-10T01:10:22;9.27;;;8.30;;
9689;SDS011;4884;42.614;23.340;2023-05-10T01:12:48;9.00;;;8.10;;
9689;SDS011;4884;42.614;23.340;2023-05-10T01:15:14;9.20;;;8.30;;
9689;SDS011;4884;42.614;23.340;2023-05-10T01:17:40;9.53;;;8.60;;
9689;SDS011;4884;42.614;23.340;2023-05-10T01:20:08;11.43;;;7.50;;
9689;SDS011;4884;42.614;23.340;2023-05-10T01:39:01;8.30;;;7.50;;
9689;SDS011;4884;42.614;23.340;2023-05-10T01:47:08;7.10;;;6.37;;
9689;SDS011;4884;42.614;23.340;2023-05-10T01:49:43;6.73;;;6.13;;
9689;SDS011;4884;42.614;23.340;2023-05-10T01:52:16;7.20;;;6.30;;
9689;SDS011;4884;42.614;23.340;2023-05-10T01:54:51;7.07;;;5.87;;
9689;SDS011;4884;42.614;23.340;2023-05-10T01:57:20;6.30;;;5.70;;
9689;SDS011;4884;42.614;23.340;2023-05-10T01:59:49;7.63;;;6.30;;
9689;SDS011;4884;42.614;23.340;2023-05-10T02:02:15;6.63;;;6.03;;
9689;SDS011;4884;42.614;23.340;2023-05-10T02:04:42;6.37;;;5.77;;
9689;SDS011;4884;42.614;23.340;2023-05-10T02:07:08;5.80;;;5.30;;
9689;SDS011;4884;42.614;23.340;2023-05-10T02:09:34;6.07;;;5.13;;
9689;SDS011;4884;42.614;23.340;2023-05-10T02:12:01;5.80;;;5.17;;
9689;SDS011;4884;42.614;23.340;2023-05-10T02:14:27;5.20;;;4.80;;
9689;SDS011;4884;42.614;23.340;2023-05-10T02:16:54;6.30;;;5.70;;
9689;SDS011;4884;42.614;23.340;2023-05-10T02:19:20;5.33;;;4.87;;
9689;SDS011;4884;42.614;23.340;2023-05-10T02:21:46;6.07;;;5.57;;
9689;SDS011;4884;42.614;23.340;2023-05-10T02:24:12;5.90;;;5.30;;
9689;SDS011;4884;42.614;23.340;2023-05-10T02:26:40;6.37;;;5.77;;
9689;SDS011;4884;42.614;23.340;2023-05-10T02:29:06;6.77;;;6.17;;
9689;SDS011;4884;42.614;23.340;2023-05-10T02:31:32;6.70;;;6.00;;
9689;SDS011;4884;42.614;23.340;2023-05-10T02:33:58;6.60;;;6.00;;
9689;SDS011;4884;42.614;23.340;2023-05-10T02:36:25;5.23;;;4.73;;
9689;SDS011;4884;42.614;23.340;2023-05-10T02:38:52;4.60;;;4.20;;
9689;SDS011;4884;42.614;23.340;2023-05-10T02:41:18;5.53;;;4.40;;
9689;SDS011;4884;42.614;23.340;2023-05-10T02:43:46;6.20;;;4.67;;
9689;SDS011;4884;42.614;23.340;2023-05-10T02:46:12;5.37;;;4.63;;
9689;SDS011;4884;42.614;23.340;2023-05-10T02:48:37;5.13;;;4.63;;
9689;SDS011;4884;42.614;23.340;2023-05-10T02:51:04;5.33;;;4.83;;
9689;SDS011;4884;42.614;23.340;2023-05-10T02:53:31;7.33;;;5.90;;
9689;SDS011;4884;42.614;23.340;2023-05-10T02:56:03;4.87;;;4.37;;
9689;SDS011;4884;42.614;23.340;2023-05-10T02:58:32;5.63;;;4.73;;
9689;SDS011;4884;42.614;23.340;2023-05-10T03:00:57;6.70;;;4.60;;
9689;SDS011;4884;42.614;23.340;2023-05-10T03:03:23;6.07;;;4.63;;
9689;SDS011;4884;42.614;23.340;2023-05-10T03:05:48;4.93;;;4.27;;
9689;SDS011;4884;42.614;23.340;2023-05-10T03:08:13;4.90;;;4.33;;
9689;SDS011;4884;42.614;23.340;2023-05-10T03:10:47;5.13;;;4.37;;
9689;SDS011;4884;42.614;23.340;2023-05-10T03:13:39;4.40;;;4.00;;
9689;SDS011;4884;42.614;23.340;2023-05-10T03:16:16;4.67;;;4.27;;
9689;SDS011;4884;42.614;23.340;2023-05-10T03:19:01;5.77;;;4.63;;
9689;SDS011;4884;42.614;23.340;2023-05-10T03:21:31;5.33;;;4.83;;
9689;SDS011;4884;42.614;23.340;2023-05-10T03:24:15;4.70;;;3.83;;
9689;SDS011;4884;42.614;23.340;2023-05-10T03:26:42;4.63;;;4.23;;
9689;SDS011;4884;42.614;23.340;2023-05-10T03:29:08;5.77;;;4.40;;
9689;SDS011;4884;42.614;23.340;2023-05-10T03:31:34;5.60;;;4.67;;
9689;SDS011;4884;42.614;23.340;2023-05-10T03:33:59;5.00;;;4.50;;
9689;SDS011;4884;42.614;23.340;2023-05-10T03:36:25;4.77;;;4.27;;
9689;SDS011;4884;42.614;23.340;2023-05-10T03:38:50;4.97;;;4.50;;
9689;SDS011;4884;42.614;23.340;2023-05-10T03:41:15;4.70;;;4.30;;
9689;SDS011;4884;42.614;23.340;2023-05-10T03:43:41;4.73;;;4.30;;
9689;SDS011;4884;42.614;23.340;2023-05-10T03:46:06;4.70;;;4.30;;
9689;SDS011;4884;42.614;23.340;2023-05-10T03:48:32;5.20;;;4.63;;
9689;SDS011;4884;42.614;23.340;2023-05-10T03:50:57;6.43;;;4.93;;
9689;SDS011;4884;42.614;23.340;2023-05-10T03:53:23;6.00;;;5.40;;
9689;SDS011;4884;42.614;23.340;2023-05-10T03:55:49;6.40;;;5.77;;
9689;SDS011;4884;42.614;23.340;2023-05-10T03:58:14;6.83;;;6.13;;
9689;SDS011;4884;42.614;23.340;2023-05-10T04:00:40;7.03;;;6.40;;
9689;SDS011;4884;42.614;23.340;2023-05-10T04:03:08;38.77;;;25.20;;
9689;SDS011;4884;42.614;23.340;2023-05-10T04:05:34;8.70;;;7.43;;
9689;SDS011;4884;42.614;23.340;2023-05-10T04:08:00;7.63;;;6.87;;
9689;SDS011;4884;42.614;23.340;2023-05-10T04:10:25;8.97;;;8.07;;
9689;SDS011;4884;42.614;23.340;2023-05-10T04:12:51;7.37;;;6.67;;
9689;SDS011;4884;42.614;23.340;2023-05-10T04:15:16;7.47;;;6.73;;
9689;SDS011;4884;42.614;23.340;2023-05-10T04:17:42;7.53;;;6.80;;
9689;SDS011;4884;42.614;23.340;2023-05-10T04:20:07;7.47;;;6.67;;
9689;SDS011;4884;42.614;23.340;2023-05-10T04:22:33;7.30;;;6.50;;
9689;SDS011;4884;42.614;23.340;2023-05-10T04:24:58;7.67;;;6.87;;
9689;SDS011;4884;42.614;23.340;2023-05-10T04:27:24;7.60;;;6.87;;
9689;SDS011;4884;42.614;23.340;2023-05-10T04:29:49;11.43;;;7.10;;
9689;SDS011;4884;42.614;23.340;2023-05-10T04:32:15;8.13;;;7.33;;
9689;SDS011;4884;42.614;23.340;2023-05-10T04:34:42;8.20;;;7.43;;
9689;SDS011;4884;42.614;23.340;2023-05-10T04:37:08;8.17;;;7.47;;
9689;SDS011;4884;42.614;23.340;2023-05-10T04:39:33;8.80;;;7.90;;
9689;SDS011;4884;42.614;23.340;2023-05-10T04:42:00;9.87;;;7.93;;
9689;SDS011;4884;42.614;23.340;2023-05-10T04:44:25;8.40;;;7.50;;
9689;SDS011;4884;42.614;23.340;2023-05-10T04:46:51;8.73;;;7.87;;
9689;SDS011;4884;42.614;23.340;2023-05-10T04:49:16;8.97;;;8.07;;
9689;SDS011;4884;42.614;23.340;2023-05-10T04:51:42;8.23;;;7.43;;
9689;SDS011;4884;42.614;23.340;2023-05-10T04:54:08;12.13;;;7.83;;
9689;SDS011;4884;42.614;23.340;2023-05-10T04:56:33;8.47;;;7.57;;
9689;SDS011;4884;42.614;23.340;2023-05-10T04:58:58;8.77;;;7.83;;
9689;SDS011;4884;42.614;23.340;2023-05-10T05:01:24;8.00;;;7.20;;
9689;SDS011;4884;42.614;23.340;2023-05-10T05:03:49;10.17;;;8.27;;
9689;SDS011;4884;42.614;23.340;2023-05-10T05:06:15;8.53;;;7.20;;
9689;SDS011;4884;42.614;23.340;2023-05-10T05:08:40;8.73;;;7.47;;
9689;SDS011;4884;42.614;23.340;2023-05-10T05:11:06;8.07;;;7.27;;
9689;SDS011;4884;42.614;23.340;2023-05-10T05:13:31;8.33;;;6.87;;
9689;SDS011;4884;42.614;23.340;2023-05-10T05:15:57;8.50;;;7.67;;
9689;SDS011;4884;42.614;23.340;2023-05-10T05:18:22;9.30;;;6.83;;
9689;SDS011;4884;42.614;23.340;2023-05-10T05:20:47;8.30;;;7.47;;
9689;SDS011;4884;42.614;23.340;2023-05-10T05:23:13;8.60;;;7.57;;
9689;SDS011;4884;42.614;23.340;2023-05-10T05:25:38;8.50;;;7.43;;
9689;SDS011;4884;42.614;23.340;2023-05-10T05:28:03;8.20;;;7.40;;
9689;SDS011;4884;42.614;23.340;2023-05-10T05:30:29;9.43;;;7.53;;
9689;SDS011;4884;42.614;23.340;2023-05-10T05:32:54;9.77;;;8.77;;
9689;SDS011;4884;42.614;23.340;2023-05-10T05:35:20;9.90;;;8.20;;
9689;SDS011;4884;42.614;23.340;2023-05-10T05:37:45;9.80;;;8.33;;
9689;SDS011;4884;42.614;23.340;2023-05-10T05:40:12;10.20;;;8.10;;
9689;SDS011;4884;42.614;23.340;2023-05-10T05:42:38;8.90;;;7.10;;
9689;SDS011;4884;42.614;23.340;2023-05-10T05:45:04;10.80;;;9.07;;
9689;SDS011;4884;42.614;23.340;2023-05-10T05:47:30;9.73;;;8.70;;
9689;SDS011;4884;42.614;23.340;2023-05-10T05:49:55;10.50;;;8.70;;
9689;SDS011;4884;42.614;23.340;2023-05-10T05:52:21;12.43;;;8.37;;
9689;SDS011;4884;42.614;23.340;2023-05-10T05:54:46;10.20;;;8.70;;
9689;SDS011;4884;42.614;23.340;2023-05-10T05:57:11;11.30;;;9.77;;
9689;SDS011;4884;42.614;23.340;2023-05-10T05:59:37;11.43;;;9.33;;
9689;SDS011;4884;42.614;23.340;2023-05-10T06:02:07;12.03;;;9.77;;
9689;SDS011;4884;42.614;23.340;2023-05-10T06:04:33;14.83;;;10.93;;
9689;SDS011;4884;42.614;23.340;2023-05-10T06:06:58;10.33;;;9.27;;
9689;SDS011;4884;42.614;23.340;2023-05-10T06:09:24;11.13;;;9.83;;
9689;SDS011;4884;42.614;23.340;2023-05-10T06:11:49;12.30;;;10.50;;
9689;SDS011;4884;42.614;23.340;2023-05-10T06:14:14;12.90;;;10.37;;
9689;SDS011;4884;42.614;23.340;2023-05-10T06:16:40;15.00;;;10.73;;
9689;SDS011;4884;42.614;23.340;2023-05-10T06:19:05;13.93;;;11.03;;
9689;SDS011;4884;42.614;23.340;2023-05-10T06:21:31;12.63;;;11.20;;
9689;SDS011;4884;42.614;23.340;2023-05-10T06:23:56;13.60;;;10.13;;
9689;SDS011;4884;42.614;23.340;2023-05-10T06:26:22;14.20;;;10.93;;
9689;SDS011;4884;42.614;23.340;2023-05-10T06:28:47;14.23;;;11.77;;
9689;SDS011;4884;42.614;23.340;2023-05-10T06:31:13;16.50;;;11.97;;
9689;SDS011;4884;42.614;23.340;2023-05-10T06:33:38;14.33;;;12.13;;
9689;SDS011;4884;42.614;23.340;2023-05-10T06:36:03;14.03;;;10.87;;
9689;SDS011;4884;42.614;23.340;2023-05-10T06:38:29;13.67;;;11.43;;
9689;SDS011;4884;42.614;23.340;2023-05-10T06:40:54;12.63;;;10.53;;
9689;SDS011;4884;42.614;23.340;2023-05-10T06:43:20;16.13;;;11.10;;
9689;SDS011;4884;42.614;23.340;2023-05-10T06:45:45;16.47;;;13.20;;
9689;SDS011;4884;42.614;23.340;2023-05-10T06:48:11;15.93;;;12.07;;
9689;SDS011;4884;42.614;23.340;2023-05-10T06:50:36;14.90;;;12.03;;
9689;SDS011;4884;42.614;23.340;2023-05-10T06:53:01;14.07;;;11.13;;
9689;SDS011;4884;42.614;23.340;2023-05-10T06:55:27;13.00;;;10.70;;
9689;SDS011;4884;42.614;23.340;2023-05-10T06:57:53;15.13;;;12.17;;
9689;SDS011;4884;42.614;23.340;2023-05-10T07:00:19;12.47;;;10.27;;
9689;SDS011;4884;42.614;23.340;2023-05-10T07:02:44;14.10;;;10.73;;
9689;SDS011;4884;42.614;23.340;2023-05-10T07:05:10;13.70;;;10.77;;
9689;SDS011;4884;42.614;23.340;2023-05-10T07:07:36;14.07;;;10.97;;
9689;SDS011;4884;42.614;23.340;2023-05-10T07:10:02;15.67;;;11.90;;
9689;SDS011;4884;42.614;23.340;2023-05-10T07:12:27;11.90;;;10.60;;
9689;SDS011;4884;42.614;23.340;2023-05-10T07:14:53;11.90;;;10.27;;
9689;SDS011;4884;42.614;23.340;2023-05-10T07:17:18;11.10;;;9.70;;
9689;SDS011;4884;42.614;23.340;2023-05-10T07:19:43;13.30;;;11.00;;
9689;SDS011;4884;42.614;23.340;2023-05-10T07:22:09;14.37;;;11.53;;
9689;SDS011;4884;42.614;23.340;2023-05-10T07:24:34;15.73;;;10.70;;
9689;SDS011;4884;42.614;23.340;2023-05-10T07:27:00;10.90;;;9.80;;
9689;SDS011;4884;42.614;23.340;2023-05-10T07:29:25;12.73;;;10.77;;
9689;SDS011;4884;42.614;23.340;2023-05-10T07:31:51;13.33;;;10.60;;
9689;SDS011;4884;42.614;23.340;2023-05-10T07:34:16;13.33;;;10.73;;
9689;SDS011;4884;42.614;23.340;2023-05-10T07:36:41;12.90;;;10.37;;
9689;SDS011;4884;42.614;23.340;2023-05-10T07:39:07;13.30;;;10.00;;
9689;SDS011;4884;42.614;23.340;2023-05-10T07:41:32;11.57;;;10.10;;
9689;SDS011;4884;42.614;23.340;2023-05-10T07:43:58;12.20;;;10.80;;
9689;SDS011;4884;42.614;23.340;2023-05-10T07:46:23;11.80;;;10.63;;
9689;SDS011;4884;42.614;23.340;2023-05-10T07:48:48;10.97;;;9.57;;
9689;SDS011;4884;42.614;23.340;2023-05-10T07:51:14;12.03;;;10.83;;
9689;SDS011;4884;42.614;23.340;2023-05-10T07:53:39;12.83;;;11.40;;
9689;SDS011;4884;42.614;23.340;2023-05-10T07:58:54;12.97;;;10.63;;
9689;SDS011;4884;42.614;23.340;2023-05-10T08:01:23;13.33;;;10.90;;
9689;SDS011;4884;42.614;23.340;2023-05-10T08:03:49;13.03;;;10.47;;
9689;SDS011;4884;42.614;23.340;2023-05-10T08:06:16;12.90;;;11.30;;
9689;SDS011;4884;42.614;23.340;2023-05-10T08:08:42;17.60;;;11.20;;
9689;SDS011;4884;42.614;23.340;2023-05-10T08:11:08;14.13;;;12.27;;
9689;SDS011;4884;42.614;23.340;2023-05-10T08:13:33;12.67;;;10.50;;
9689;SDS011;4884;42.614;23.340;2023-05-10T08:15:59;12.73;;;10.20;;
9689;SDS011;4884;42.614;23.340;2023-05-10T08:18:24;11.90;;;9.83;;
9689;SDS011;4884;42.614;23.340;2023-05-10T08:20:50;10.97;;;9.63;;
9689;SDS011;4884;42.614;23.340;2023-05-10T08:23:15;13.23;;;10.17;;
9689;SDS011;4884;42.614;23.340;2023-05-10T08:25:40;14.47;;;11.40;;
9689;SDS011;4884;42.614;23.340;2023-05-10T08:28:06;11.40;;;10.20;;
9689;SDS011;4884;42.614;23.340;2023-05-10T08:30:31;13.83;;;10.80;;
9689;SDS011;4884;42.614;23.340;2023-05-10T08:32:56;11.60;;;10.37;;
9689;SDS011;4884;42.614;23.340;2023-05-10T08:35:22;11.80;;;10.67;;
9689;SDS011;4884;42.614;23.340;2023-05-10T08:37:47;13.43;;;10.57;;
9689;SDS011;4884;42.614;23.340;2023-05-10T08:40:13;12.27;;;10.97;;
9689;SDS011;4884;42.614;23.340;2023-05-10T08:42:40;12.00;;;10.80;;
9689;SDS011;4884;42.614;23.340;2023-05-10T08:45:08;11.87;;;10.67;;
9689;SDS011;4884;42.614;23.340;2023-05-10T08:47:35;12.67;;;10.07;;
9689;SDS011;4884;42.614;23.340;2023-05-10T08:50:03;13.53;;;11.53;;
9689;SDS011;4884;42.614;23.340;2023-05-10T08:52:28;12.27;;;10.43;;
9689;SDS011;4884;42.614;23.340;2023-05-10T08:54:55;14.27;;;10.97;;
9689;SDS011;4884;42.614;23.340;2023-05-10T08:57:21;12.37;;;10.77;;
9689;SDS011;4884;42.614;23.340;2023-05-10T08:59:47;12.37;;;10.37;;
9689;SDS011;4884;42.614;23.340;2023-05-10T09:02:12;12.20;;;10.90;;
9689;SDS011;4884;42.614;23.340;2023-05-10T09:04:38;12.23;;;10.37;;
9689;SDS011;4884;42.614;23.340;2023-05-10T09:07:04;12.27;;;10.80;;
9689;SDS011;4884;42.614;23.340;2023-05-10T09:09:29;13.90;;;12.17;;
9689;SDS011;4884;42.614;23.340;2023-05-10T09:11:55;12.60;;;11.30;;
9689;SDS011;4884;42.614;23.340;2023-05-10T09:14:21;13.20;;;11.80;;
9689;SDS011;4884;42.614;23.340;2023-05-10T09:16:48;12.80;;;11.50;;
9689;SDS011;4884;42.614;23.340;2023-05-10T09:19:14;13.30;;;11.90;;
9689;SDS011;4884;42.614;23.340;2023-05-10T09:21:39;11.97;;;10.77;;
9689;SDS011;4884;42.614;23.340;2023-05-10T09:24:05;14.10;;;12.53;;
9689;SDS011;4884;42.614;23.340;2023-05-10T09:26:31;14.27;;;12.63;;
9689;SDS011;4884;42.614;23.340;2023-05-10T09:28:58;17.83;;;13.33;;
9689;SDS011;4884;42.614;23.340;2023-05-10T09:31:24;14.43;;;12.93;;
9689;SDS011;4884;42.614;23.340;2023-05-10T09:33:51;14.10;;;12.60;;
9689;SDS011;4884;42.614;23.340;2023-05-10T09:36:17;16.70;;;13.23;;
9689;SDS011;4884;42.614;23.340;2023-05-10T09:38:49;13.97;;;12.53;;
9689;SDS011;4884;42.614;23.340;2023-05-10T09:41:17;15.80;;;13.07;;
9689;SDS011;4884;42.614;23.340;2023-05-10T09:43:50;16.07;;;14.23;;
9689;SDS011;4884;42.614;23.340;2023-05-10T09:46:16;15.17;;;13.67;;
9689;SDS011;4884;42.614;23.340;2023-05-10T09:48:45;31.60;;;24.80;;
9689;SDS011;4884;42.614;23.340;2023-05-10T09:51:24;15.00;;;13.43;;
9689;SDS011;4884;42.614;23.340;2023-05-10T09:56:40;13.03;;;11.83;;
9689;SDS011;4884;42.614;23.340;2023-05-10T09:59:07;12.90;;;11.37;;
9689;SDS011;4884;42.614;23.340;2023-05-10T10:01:34;12.30;;;11.17;;
9689;SDS011;4884;42.614;23.340;2023-05-10T10:04:09;12.80;;;11.47;;
9689;SDS011;4884;42.614;23.340;2023-05-10T10:06:38;13.67;;;12.03;;
9689;SDS011;4884;42.614;23.340;2023-05-10T10:09:05;14.10;;;12.70;;
9689;SDS011;4884;42.614;23.340;2023-05-10T10:11:31;15.80;;;13.30;;
9689;SDS011;4884;42.614;23.340;2023-05-10T10:13:58;15.00;;;13.50;;
9689;SDS011;4884;42.614;23.340;2023-05-10T10:16:24;13.93;;;12.00;;
9689;SDS011;4884;42.614;23.340;2023-05-10T10:18:49;14.23;;;12.67;;
9689;SDS011;4884;42.614;23.340;2023-05-10T10:21:15;14.83;;;12.43;;
9689;SDS011;4884;42.614;23.340;2023-05-10T10:23:40;14.60;;;13.20;;
9689;SDS011;4884;42.614;23.340;2023-05-10T10:26:06;12.80;;;11.60;;
9689;SDS011;4884;42.614;23.340;2023-05-10T10:36:55;13.23;;;11.83;;
9689;SDS011;4884;42.614;23.340;2023-05-10T10:39:22;12.53;;;11.23;;
9689;SDS011;4884;42.614;23.340;2023-05-10T10:41:55;13.67;;;11.73;;
9689;SDS011;4884;42.614;23.340;2023-05-10T10:49:26;12.60;;;10.77;;
9689;SDS011;4884;42.614;23.340;2023-05-10T10:57:49;10.47;;;9.47;;
9689;SDS011;4884;42.614;23.340;2023-05-10T11:00:23;12.60;;;11.40;;
9689;SDS011;4884;42.614;23.340;2023-05-10T11:02:50;13.20;;;11.90;;
9689;SDS011;4884;42.614;23.340;2023-05-10T11:08:32;12.47;;;11.27;;
9689;SDS011;4884;42.614;23.340;2023-05-10T11:16:40;12.10;;;10.90;;
9689;SDS011;4884;42.614;23.340;2023-05-10T11:21:28;11.57;;;9.60;;
9689;SDS011;4884;42.614;23.340;2023-05-10T11:23:55;11.30;;;10.30;;
9689;SDS011;4884;42.614;23.340;2023-05-10T11:26:26;12.10;;;10.90;;
9689;SDS011;4884;42.614;23.340;2023-05-10T11:28:56;14.37;;;11.17;;
9689;SDS011;4884;42.614;23.340;2023-05-10T11:31:21;12.57;;;11.37;;
9689;SDS011;4884;42.614;23.340;2023-05-10T11:33:51;13.30;;;12.00;;
9689;SDS011;4884;42.614;23.340;2023-05-10T11:36:21;12.17;;;10.97;;
9689;SDS011;4884;42.614;23.340;2023-05-10T11:38:50;13.33;;;11.13;;
9689;SDS011;4884;42.614;23.340;2023-05-10T11:41:17;13.03;;;11.70;;
9689;SDS011;4884;42.614;23.340;2023-05-10T11:43:44;15.70;;;11.57;;
9689;SDS011;4884;42.614;23.340;2023-05-10T11:46:12;14.10;;;12.03;;
9689;SDS011;4884;42.614;23.340;2023-05-10T11:48:41;15.20;;;12.33;;
9689;SDS011;4884;42.614;23.340;2023-05-10T11:51:07;15.93;;;12.77;;
9689;SDS011;4884;42.614;23.340;2023-05-10T11:53:33;14.17;;;11.47;;
9689;SDS011;4884;42.614;23.340;2023-05-10T11:56:05;13.50;;;11.87;;
9689;SDS011;4884;42.614;23.340;2023-05-10T11:58:31;13.60;;;11.87;;
9689;SDS011;4884;42.614;23.340;2023-05-10T12:00:58;14.00;;;12.50;;
9689;SDS011;4884;42.614;23.340;2023-05-10T12:03:24;13.93;;;12.33;;
9689;SDS011;4884;42.614;23.340;2023-05-10T12:05:49;14.37;;;11.57;;
9689;SDS011;4884;42.614;23.340;2023-05-10T12:08:27;13.93;;;12.57;;
9689;SDS011;4884;42.614;23.340;2023-05-10T12:13:52;15.00;;;12.37;;
9689;SDS011;4884;42.614;23.340;2023-05-10T12:16:19;15.60;;;13.13;;
9689;SDS011;4884;42.614;23.340;2023-05-10T12:18:52;12.33;;;11.10;;
9689;SDS011;4884;42.614;23.340;2023-05-10T12:21:19;13.53;;;12.17;;
9689;SDS011;4884;42.614;23.340;2023-05-10T12:23:45;14.87;;;13.37;;
9689;SDS011;4884;42.614;23.340;2023-05-10T12:26:12;13.63;;;12.07;;
9689;SDS011;4884;42.614;23.340;2023-05-10T12:28:37;13.37;;;12.07;;
9689;SDS011;4884;42.614;23.340;2023-05-10T12:31:06;13.30;;;11.90;;
9689;SDS011;4884;42.614;23.340;2023-05-10T12:33:36;15.27;;;12.33;;
9689;SDS011;4884;42.614;23.340;2023-05-10T12:36:07;14.57;;;11.87;;
9689;SDS011;4884;42.614;23.340;2023-05-10T12:38:34;13.70;;;12.30;;
9689;SDS011;4884;42.614;23.340;2023-05-10T12:41:03;16.53;;;11.93;;
9689;SDS011;4884;42.614;23.340;2023-05-10T12:43:30;13.77;;;12.33;;
9689;SDS011;4884;42.614;23.340;2023-05-10T12:45:55;16.30;;;12.50;;
9689;SDS011;4884;42.614;23.340;2023-05-10T12:48:21;12.90;;;11.60;;
9689;SDS011;4884;42.614;23.340;2023-05-10T12:50:46;14.00;;;12.30;;
9689;SDS011;4884;42.614;23.340;2023-05-10T12:53:15;15.03;;;13.40;;
9689;SDS011;4884;42.614;23.340;2023-05-10T12:55:41;12.10;;;10.73;;
9689;SDS011;4884;42.614;23.340;2023-05-10T12:58:07;19.53;;;14.47;;
9689;SDS011;4884;42.614;23.340;2023-05-10T13:00:33;14.43;;;12.43;;
9689;SDS011;4884;42.614;23.340;2023-05-10T13:02:58;14.30;;;12.80;;
9689;SDS011;4884;42.614;23.340;2023-05-10T13:05:23;14.33;;;12.70;;
9689;SDS011;4884;42.614;23.340;2023-05-10T13:07:49;15.63;;;14.03;;
9689;SDS011;4884;42.614;23.340;2023-05-10T13:10:15;14.10;;;12.70;;
9689;SDS011;4884;42.614;23.340;2023-05-10T13:12:41;14.00;;;12.60;;
9689;SDS011;4884;42.614;23.340;2023-05-10T13:15:06;12.80;;;11.20;;
9689;SDS011;4884;42.614;23.340;2023-05-10T13:17:32;13.03;;;11.63;;
9689;SDS011;4884;42.614;23.340;2023-05-10T13:19:57;16.70;;;11.97;;
9689;SDS011;4884;42.614;23.340;2023-05-10T13:22:23;14.30;;;10.90;;
9689;SDS011;4884;42.614;23.340;2023-05-10T13:24:48;13.63;;;11.97;;
9689;SDS011;4884;42.614;23.340;2023-05-10T13:27:13;14.00;;;12.30;;
9689;SDS011;4884;42.614;23.340;2023-05-10T13:29:39;14.10;;;12.60;;
9689;SDS011;4884;42.614;23.340;2023-05-10T13:32:04;19.07;;;12.67;;
9689;SDS011;4884;42.614;23.340;2023-05-10T13:34:30;18.70;;;12.83;;
9689;SDS011;4884;42.614;23.340;2023-05-10T13:36:55;14.23;;;11.50;;
9689;SDS011;4884;42.614;23.340;2023-05-10T13:39:21;16.37;;;12.60;;
9689;SDS011;4884;42.614;23.340;2023-05-10T13:41:47;15.20;;;12.23;;
9689;SDS011;4884;42.614;23.340;2023-05-10T13:44:13;15.90;;;12.43;;
9689;SDS011;4884;42.614;23.340;2023-05-10T13:46:39;12.40;;;11.17;;
9689;SDS011;4884;42.614;23.340;2023-05-10T13:49:05;12.60;;;11.30;;
9689;SDS011;4884;42.614;23.340;2023-05-10T13:51:31;11.50;;;10.30;;
9689;SDS011;4884;42.614;23.340;2023-05-10T13:53:56;12.60;;;10.77;;
9689;SDS011;4884;42.614;23.340;2023-05-10T13:56:38;13.87;;;11.07;;
9689;SDS011;4884;42.614;23.340;2023-05-10T13:59:03;12.90;;;11.47;;
9689;SDS011;4884;42.614;23.340;2023-05-10T14:01:28;12.87;;;11.47;;
9689;SDS011;4884;42.614;23.340;2023-05-10T14:03:54;12.40;;;11.00;;
9689;SDS011;4884;42.614;23.340;2023-05-10T14:06:19;14.67;;;11.83;;
9689;SDS011;4884;42.614;23.340;2023-05-10T14:08:45;13.73;;;12.23;;
9689;SDS011;4884;42.614;23.340;2023-05-10T14:11:10;11.93;;;10.37;;
9689;SDS011;4884;42.614;23.340;2023-05-10T14:13:36;12.57;;;11.27;;
9689;SDS011;4884;42.614;23.340;2023-05-10T14:16:02;13.17;;;11.63;;
9689;SDS011;4884;42.614;23.340;2023-05-10T14:18:27;12.93;;;11.63;;
9689;SDS011;4884;42.614;23.340;2023-05-10T14:20:53;13.97;;;12.17;;
9689;SDS011;4884;42.614;23.340;2023-05-10T14:23:18;12.23;;;10.73;;
9689;SDS011;4884;42.614;23.340;2023-05-10T14:25:55;12.37;;;10.13;;
9689;SDS011;4884;42.614;23.340;2023-05-10T14:28:20;12.97;;;11.67;;
9689;SDS011;4884;42.614;23.340;2023-05-10T14:30:47;15.90;;;11.80;;
9689;SDS011;4884;42.614;23.340;2023-05-10T14:33:12;13.47;;;12.07;;
9689;SDS011;4884;42.614;23.340;2023-05-10T14:35:38;13.20;;;11.73;;
9689;SDS011;4884;42.614;23.340;2023-05-10T14:38:04;15.47;;;11.63;;
9689;SDS011;4884;42.614;23.340;2023-05-10T14:40:29;12.33;;;11.10;;
9689;SDS011;4884;42.614;23.340;2023-05-10T14:42:55;15.17;;;12.63;;
9689;SDS011;4884;42.614;23.340;2023-05-10T14:45:21;13.83;;;11.80;;
9689;SDS011;4884;42.614;23.340;2023-05-10T14:47:47;12.73;;;11.37;;
9689;SDS011;4884;42.614;23.340;2023-05-10T14:50:13;13.07;;;11.70;;
9689;SDS011;4884;42.614;23.340;2023-05-10T14:56:00;13.47;;;11.90;;
9689;SDS011;4884;42.614;23.340;2023-05-10T14:58:26;13.63;;;10.07;;
9689;SDS011;4884;42.614;23.340;2023-05-10T15:00:57;14.10;;;11.93;;
9689;SDS011;4884;42.614;23.340;2023-05-10T15:03:32;14.73;;;12.17;;
9689;SDS011;4884;42.614;23.340;2023-05-10T15:06:00;13.13;;;11.83;;
9689;SDS011;4884;42.614;23.340;2023-05-10T15:08:26;12.07;;;10.73;;
9689;SDS011;4884;42.614;23.340;2023-05-10T15:10:51;12.70;;;11.37;;
9689;SDS011;4884;42.614;23.340;2023-05-10T15:13:17;16.63;;;12.30;;
9689;SDS011;4884;42.614;23.340;2023-05-10T15:15:42;13.07;;;11.57;;
9689;SDS011;4884;42.614;23.340;2023-05-10T15:18:10;12.43;;;11.20;;
9689;SDS011;4884;42.614;23.340;2023-05-10T15:20:36;13.07;;;11.00;;
9689;SDS011;4884;42.614;23.340;2023-05-10T15:23:01;12.57;;;10.33;;
9689;SDS011;4884;42.614;23.340;2023-05-10T15:25:27;13.63;;;12.23;;
9689;SDS011;4884;42.614;23.340;2023-05-10T15:27:53;13.87;;;11.33;;
9689;SDS011;4884;42.614;23.340;2023-05-10T15:30:19;12.47;;;11.20;;
9689;SDS011;4884;42.614;23.340;2023-05-10T15:32:44;13.10;;;11.73;;
9689;SDS011;4884;42.614;23.340;2023-05-10T15:35:10;12.17;;;10.97;;
9689;SDS011;4884;42.614;23.340;2023-05-10T15:37:38;20.13;;;13.37;;
9689;SDS011;4884;42.614;23.340;2023-05-10T15:40:12;13.43;;;12.00;;
9689;SDS011;4884;42.614;23.340;2023-05-10T15:42:38;14.93;;;12.83;;
9689;SDS011;4884;42.614;23.340;2023-05-10T15:45:03;14.40;;;12.40;;